Time;durP1;ratioP1;P1;durP2;ratioP2;P2;SDS_P1;SDS_P2;PMS_P1;PMS_P2;Temp;Humidity;BMP_temperature;BMP_pressure;BME280_temperature;BME280_humidity;BME280_pressure;Samples;Min_cycle;Max_cycle;Signal;HPM_P1;HPM_P2
2020/12/15 00:00:11;;;;;;;5.80;3.22;;;8.50;73.00;;;;;;2227533;55;20990;-72
2020/12/15 00:02:38;;;;;;;7.65;3.83;;;8.60;73.10;;;;;;2237814;56;21107;-71
2020/12/15 00:05:05;;;;;;;7.07;3.70;;;8.50;73.00;;;;;;2441489;55;20958;-71
2020/12/15 00:07:32;;;;;;;6.55;3.50;;;8.60;73.10;;;;;;2231003;55;21758;-72
2020/12/15 00:09:59;;;;;;;8.93;3.53;;;8.60;73.10;;;;;;2443424;56;21029;-72
2020/12/15 00:12:26;;;;;;;5.95;2.83;;;8.60;73.10;;;;;;2236476;55;20979;-71
2020/12/15 00:14:54;;;;;;;5.90;2.97;;;8.60;73.10;;;;;;2442073;55;21019;-71
2020/12/15 00:17:22;;;;;;;6.45;3.30;;;8.70;73.20;;;;;;2451166;55;20969;-71
2020/12/15 00:19:48;;;;;;;6.05;3.17;;;8.70;73.20;;;;;;2450541;55;21085;-71
2020/12/15 00:22:15;;;;;;;5.22;3.12;;;8.70;73.10;;;;;;2448713;55;21571;-72
2020/12/15 00:24:41;;;;;;;5.85;2.70;;;8.70;73.10;;;;;;2442606;55;20970;-71
2020/12/15 00:27:09;;;;;;;5.50;2.83;;;8.80;73.20;;;;;;2223731;56;21544;-71
2020/12/15 00:29:35;;;;;;;5.20;2.83;;;8.80;73.20;;;;;;2452017;55;21113;-71
2020/12/15 00:32:03;;;;;;;5.10;2.90;;;8.80;73.20;;;;;;2452400;56;20949;-71
2020/12/15 00:34:30;;;;;;;5.70;3.00;;;8.80;73.10;;;;;;2207488;57;20991;-71
2020/12/15 00:36:58;;;;;;;5.93;3.08;;;8.80;73.10;;;;;;2460037;55;21502;-71
2020/12/15 00:39:25;;;;;;;6.03;3.28;;;8.80;73.10;;;;;;2453593;56;21011;-71
2020/12/15 00:41:53;;;;;;;5.50;2.80;;;8.80;73.10;;;;;;2228844;56;21060;-71
2020/12/15 00:44:20;;;;;;;7.28;3.78;;;8.90;73.10;;;;;;2454611;55;21054;-71
2020/12/15 00:46:50;;;;;;;4.72;2.58;;;8.90;73.10;;;;;;2442351;55;21050;-71
2020/12/15 00:49:17;;;;;;;5.72;3.15;;;8.90;73.00;;;;;;2445060;55;21020;-71
2020/12/15 00:51:46;;;;;;;6.30;2.87;;;8.90;73.10;;;;;;2237245;56;21066;-72
2020/12/15 00:54:12;;;;;;;6.45;3.37;;;8.90;73.00;;;;;;2236548;56;21480;-71
2020/12/15 00:56:43;;;;;;;4.70;2.58;;;8.90;73.00;;;;;;2227028;56;21084;-71
2020/12/15 00:59:09;;;;;;;6.12;2.95;;;8.90;73.00;;;;;;2237153;56;21004;-71
2020/12/15 01:01:36;;;;;;;5.40;3.25;;;9.00;73.00;;;;;;2236933;55;21175;-71
2020/12/15 01:04:03;;;;;;;5.32;2.70;;;9.00;72.90;;;;;;2461215;55;21005;-72
2020/12/15 01:06:30;;;;;;;5.93;3.35;;;9.00;73.50;;;;;;2237278;56;21901;-72
2020/12/15 01:08:56;;;;;;;4.57;2.60;;;9.00;72.80;;;;;;2227523;56;21880;-72
2020/12/15 01:11:27;;;;;;;5.70;2.87;;;9.00;72.80;;;;;;2228784;55;20991;-71
2020/12/15 01:13:53;;;;;;;4.40;2.40;;;9.00;72.90;;;;;;2441181;55;20963;-71
2020/12/15 01:16:20;;;;;;;6.25;3.08;;;9.00;72.90;;;;;;2226684;56;21377;-71
2020/12/15 01:18:47;;;;;;;4.20;2.40;;;9.00;73.00;;;;;;2231581;55;21059;-72
2020/12/15 01:21:28;;;;;;;4.72;2.50;;;9.00;73.00;;;;;;2227307;55;21157;-72
2020/12/15 01:23:55;;;;;;;5.82;2.87;;;9.00;72.90;;;;;;2224770;56;21551;-71
2020/12/15 01:26:22;;;;;;;7.05;3.22;;;9.00;73.00;;;;;;2227515;56;21015;-72
2020/12/15 01:28:49;;;;;;;4.57;2.80;;;9.10;73.10;;;;;;2441148;55;21011;-72
2020/12/15 01:31:21;;;;;;;4.85;2.75;;;9.10;73.10;;;;;;2443341;56;21005;-71
2020/12/15 01:33:52;;;;;;;5.93;3.67;;;9.10;73.10;;;;;;2237312;56;21930;-72
2020/12/15 01:36:31;;;;;;;6.15;2.90;;;9.10;73.10;;;;;;2231167;55;20970;-71
2020/12/15 01:38:58;;;;;;;5.28;2.67;;;9.10;73.00;;;;;;2232374;55;20965;-71
2020/12/15 01:41:26;;;;;;;6.35;2.90;;;9.10;73.20;;;;;;2237364;56;21000;-71
2020/12/15 01:43:56;;;;;;;6.25;3.58;;;9.20;73.30;;;;;;2451214;56;21518;-71
2020/12/15 01:46:23;;;;;;;6.80;3.22;;;9.20;73.40;;;;;;2231862;55;21011;-71
2020/12/15 01:48:50;;;;;;;6.18;3.25;;;9.20;73.20;;;;;;2227348;55;21020;-71
2020/12/15 01:51:16;;;;;;;5.37;3.05;;;9.20;73.10;;;;;;2226924;56;21716;-71
2020/12/15 01:53:44;;;;;;;6.65;3.05;;;9.20;73.10;;;;;;2231961;56;20987;-71
2020/12/15 01:56:12;;;;;;;7.30;3.15;;;9.20;73.10;;;;;;2452285;55;21449;-72
2020/12/15 01:58:39;;;;;;;5.37;2.70;;;9.20;73.10;;;;;;2204098;57;21694;-70
2020/12/15 02:01:07;;;;;;;5.18;2.80;;;9.20;73.10;;;;;;2225967;56;21020;-71
2020/12/15 02:03:34;;;;;;;5.70;2.95;;;9.20;73.10;;;;;;2460212;55;21423;-72
2020/12/15 02:06:00;;;;;;;5.43;3.10;;;9.30;73.10;;;;;;2238346;56;20956;-72
2020/12/15 02:08:27;;;;;;;5.20;2.90;;;9.30;73.10;;;;;;2224346;56;21434;-72
2020/12/15 02:10:54;;;;;;;5.68;3.00;;;9.30;73.10;;;;;;2232422;56;21066;-71
2020/12/15 02:13:23;;;;;;;4.87;2.58;;;9.30;73.00;;;;;;2444247;55;20951;-72
2020/12/15 02:15:50;;;;;;;4.20;2.30;;;9.30;73.00;;;;;;2439771;55;21018;-72
2020/12/15 02:18:17;;;;;;;8.20;3.05;;;9.30;73.10;;;;;;2226254;55;21039;-72
2020/12/15 02:20:44;;;;;;;5.25;3.00;;;9.30;73.10;;;;;;2439948;55;21831;-72
2020/12/15 02:23:11;;;;;;;5.68;2.83;;;9.30;73.10;;;;;;2416326;56;21055;-72
2020/12/15 02:25:38;;;;;;;5.55;2.90;;;9.20;72.90;;;;;;2446259;55;20948;-71
2020/12/15 02:28:05;;;;;;;4.82;2.70;;;9.30;73.00;;;;;;2230870;56;21011;-72
2020/12/15 02:30:31;;;;;;;5.10;2.60;;;9.30;72.90;;;;;;2230201;56;20999;-72
2020/12/15 02:32:57;;;;;;;6.30;3.00;;;9.30;72.80;;;;;;2227197;56;20988;-72
2020/12/15 02:35:25;;;;;;;4.22;2.30;;;9.30;72.70;;;;;;2455761;55;20998;-72
2020/12/15 02:37:51;;;;;;;5.22;2.80;;;9.30;72.80;;;;;;2439239;55;21490;-71
2020/12/15 02:40:18;;;;;;;7.03;3.37;;;9.30;72.80;;;;;;2223411;55;20970;-72
2020/12/15 02:42:44;;;;;;;5.28;2.45;;;9.30;72.70;;;;;;2233303;55;20952;-71
2020/12/15 02:45:11;;;;;;;5.00;2.70;;;9.30;72.80;;;;;;2441331;56;21522;-71
2020/12/15 02:47:37;;;;;;;5.37;2.65;;;9.30;72.90;;;;;;2227540;55;21037;-71
2020/12/15 02:50:05;;;;;;;5.57;2.58;;;9.30;72.90;;;;;;2445659;55;21048;-71
2020/12/15 02:52:31;;;;;;;4.05;2.45;;;9.30;73.70;;;;;;2450608;55;21036;-72
2020/12/15 02:54:58;;;;;;;6.12;2.37;;;9.30;73.00;;;;;;2231171;56;20957;-71
2020/12/15 02:57:24;;;;;;;4.87;2.20;;;9.30;73.10;;;;;;2237108;56;20951;-72
2020/12/15 02:59:52;;;;;;;4.03;2.05;;;9.30;73.10;;;;;;2237627;55;21591;-72
2020/12/15 03:02:19;;;;;;;4.30;2.15;;;9.30;73.10;;;;;;2226346;55;21746;-71
2020/12/15 03:04:47;;;;;;;4.47;2.17;;;9.30;73.20;;;;;;2418737;56;20984;-72
2020/12/15 03:07:14;;;;;;;3.85;1.98;;;9.30;73.20;;;;;;2230290;56;20947;-71
2020/12/15 03:09:43;;;;;;;3.75;2.08;;;9.30;73.10;;;;;;2232754;56;20968;-71
2020/12/15 03:12:19;;;;;;;6.40;2.28;;;9.40;73.10;;;;;;2444292;55;20975;-71
2020/12/15 03:14:47;;;;;;;3.87;2.03;;;9.40;73.10;;;;;;2236683;56;21519;-72
2020/12/15 03:17:13;;;;;;;4.40;2.30;;;9.40;73.20;;;;;;2227376;56;20967;-71
2020/12/15 03:19:43;;;;;;;4.50;2.10;;;9.40;73.20;;;;;;2448852;55;20959;-71
2020/12/15 03:22:11;;;;;;;4.28;1.92;;;9.40;73.10;;;;;;2227345;55;21568;-73
2020/12/15 03:24:39;;;;;;;5.40;2.22;;;9.40;73.10;;;;;;2230451;55;21012;-72
2020/12/15 03:27:06;;;;;;;4.00;2.05;;;9.40;73.10;;;;;;2444485;55;21112;-72
2020/12/15 03:29:33;;;;;;;5.15;2.72;;;9.40;73.70;;;;;;2240767;56;21013;-72
2020/12/15 03:32:03;;;;;;;4.80;2.35;;;9.40;73.00;;;;;;2443445;56;20968;-73
2020/12/15 03:34:30;;;;;;;5.37;2.50;;;9.40;73.00;;;;;;2237603;55;21028;-72
2020/12/15 03:36:57;;;;;;;4.18;2.30;;;9.40;73.00;;;;;;2236554;55;21003;-72
2020/12/15 03:39:24;;;;;;;5.60;2.22;;;9.40;73.00;;;;;;2226784;56;20945;-72
2020/12/15 03:41:54;;;;;;;3.83;2.15;;;9.40;73.20;;;;;;2445629;55;20982;-72
2020/12/15 03:44:22;;;;;;;3.47;1.87;;;9.40;73.10;;;;;;2236741;56;20917;-72
2020/12/15 03:46:49;;;;;;;4.15;2.25;;;9.40;73.10;;;;;;2460949;55;21751;-72
2020/12/15 03:49:16;;;;;;;5.53;2.62;;;9.40;73.10;;;;;;2237417;56;21036;-73
2020/12/15 03:51:43;;;;;;;4.28;2.30;;;9.40;73.20;;;;;;2452500;56;20950;-72
2020/12/15 03:54:12;;;;;;;4.32;2.40;;;9.40;73.30;;;;;;2224075;55;21700;-72
2020/12/15 03:56:39;;;;;;;3.87;2.22;;;9.40;73.30;;;;;;2460800;55;20968;-73
2020/12/15 03:59:06;;;;;;;4.25;2.10;;;9.40;73.40;;;;;;2229754;55;21019;-72
2020/12/15 04:01:33;;;;;;;4.65;2.35;;;9.40;73.50;;;;;;2231502;55;20935;-73
2020/12/15 04:04:03;;;;;;;4.00;2.20;;;9.30;73.40;;;;;;2231054;56;20953;-73
2020/12/15 04:06:29;;;;;;;4.43;2.62;;;9.40;73.50;;;;;;2456990;56;21003;-73
2020/12/15 04:08:56;;;;;;;4.15;2.55;;;9.40;73.40;;;;;;2205938;56;20976;-72
2020/12/15 04:11:23;;;;;;;5.55;2.87;;;9.40;73.40;;;;;;2446148;55;21070;-73
2020/12/15 04:13:50;;;;;;;5.37;2.78;;;9.50;73.50;;;;;;2228633;55;21028;-73
2020/12/15 04:16:18;;;;;;;3.90;2.17;;;9.50;73.40;;;;;;2447559;56;21027;-73
2020/12/15 04:18:46;;;;;;;5.28;2.33;;;9.50;73.40;;;;;;2224727;55;21010;-73
2020/12/15 04:21:12;;;;;;;4.70;2.60;;;9.50;73.30;;;;;;2460157;56;21092;-73
2020/12/15 04:23:40;;;;;;;6.85;3.12;;;9.50;73.30;;;;;;2441699;55;21034;-73
2020/12/15 04:26:06;;;;;;;4.40;2.90;;;9.50;73.30;;;;;;2444286;56;21072;-73
2020/12/15 04:28:33;;;;;;;4.60;2.50;;;9.50;73.30;;;;;;2460521;56;20980;-72
2020/12/15 04:30:59;;;;;;;4.22;2.50;;;9.50;73.40;;;;;;2237047;56;20980;-73
2020/12/15 04:33:26;;;;;;;5.35;3.03;;;9.50;73.40;;;;;;2460625;55;20993;-73
2020/12/15 04:35:53;;;;;;;6.07;2.90;;;9.50;73.30;;;;;;2227217;56;20999;-73
2020/12/15 04:38:19;;;;;;;5.10;2.50;;;9.50;73.20;;;;;;2229960;55;21004;-72
2020/12/15 04:40:45;;;;;;;4.18;2.55;;;9.50;73.20;;;;;;2442725;55;21085;-72
2020/12/15 04:43:14;;;;;;;4.35;2.33;;;9.50;73.10;;;;;;2233105;56;21027;-73
2020/12/15 04:45:41;;;;;;;4.95;2.67;;;9.50;73.10;;;;;;2230457;56;21084;-72
2020/12/15 04:48:12;;;;;;;4.90;2.33;;;9.50;73.10;;;;;;2230711;56;21032;-72
2020/12/15 04:50:39;;;;;;;5.53;2.70;;;9.50;73.20;;;;;;2228030;55;21139;-72
2020/12/15 04:53:10;;;;;;;4.53;2.28;;;9.50;73.30;;;;;;2226574;55;21052;-72
2020/12/15 04:55:41;;;;;;;4.37;2.42;;;9.50;73.30;;;;;;2460966;55;21659;-72
2020/12/15 04:58:07;;;;;;;4.30;2.45;;;9.50;73.30;;;;;;2236656;56;21546;-72
2020/12/15 05:00:34;;;;;;;4.95;2.25;;;9.50;73.40;;;;;;2453332;55;20967;-73
2020/12/15 05:03:02;;;;;;;3.90;2.17;;;9.60;73.50;;;;;;2451827;56;20972;-72
2020/12/15 05:05:29;;;;;;;4.60;2.80;;;9.60;73.50;;;;;;2460411;55;21056;-72
2020/12/15 05:07:59;;;;;;;4.78;2.85;;;9.60;73.40;;;;;;2236724;56;21076;-72
2020/12/15 05:10:26;;;;;;;4.95;2.67;;;9.60;73.30;;;;;;2444283;56;20996;-72
2020/12/15 05:12:52;;;;;;;5.22;2.92;;;9.60;73.30;;;;;;2228728;55;20975;-72
2020/12/15 05:15:20;;;;;;;4.37;2.30;;;9.60;73.40;;;;;;2237895;56;21780;-72
2020/12/15 05:17:46;;;;;;;4.30;2.17;;;9.60;73.40;;;;;;2439044;55;21010;-73
2020/12/15 05:20:17;;;;;;;4.45;2.25;;;9.60;73.50;;;;;;2449151;55;20969;-72
2020/12/15 05:22:47;;;;;;;4.30;2.50;;;9.60;73.50;;;;;;2443204;56;20967;-72
2020/12/15 05:25:26;;;;;;;3.75;2.28;;;9.60;73.40;;;;;;2240366;56;21530;-72
2020/12/15 05:27:58;;;;;;;4.18;2.35;;;9.70;73.30;;;;;;2226941;55;21027;-73
2020/12/15 05:30:24;;;;;;;4.80;2.55;;;9.70;73.30;;;;;;2226501;55;21052;-72
2020/12/15 05:33:03;;;;;;;4.93;2.83;;;9.70;73.20;;;;;;2224134;55;21025;-72
2020/12/15 05:35:38;;;;;;;4.68;2.78;;;9.70;73.00;;;;;;2237030;56;21838;-72
2020/12/15 05:38:06;;;;;;;4.60;2.40;;;9.70;73.10;;;;;;2225553;57;21001;-72
2020/12/15 05:40:33;;;;;;;5.35;3.05;;;9.60;72.90;;;;;;2233655;56;21094;-72
2020/12/15 05:43:02;;;;;;;7.40;3.00;;;9.60;72.90;;;;;;2450400;56;21023;-72
2020/12/15 05:45:32;;;;;;;5.00;2.85;;;9.60;72.90;;;;;;2235905;56;21091;-72
2020/12/15 05:48:08;;;;;;;5.15;2.60;;;9.60;72.90;;;;;;2225167;55;20981;-72
2020/12/15 05:50:35;;;;;;;4.75;2.65;;;9.60;72.90;;;;;;2235864;55;21487;-72
2020/12/15 05:53:06;;;;;;;4.82;2.65;;;9.60;73.00;;;;;;2445153;56;21003;-72
2020/12/15 05:55:33;;;;;;;4.53;2.20;;;9.60;73.00;;;;;;2233581;56;21361;-72
2020/12/15 05:58:00;;;;;;;4.47;2.37;;;9.60;73.10;;;;;;2229368;55;21012;-72
2020/12/15 06:00:30;;;;;;;5.50;2.65;;;9.60;73.20;;;;;;2458707;55;20996;-73
2020/12/15 06:03:06;;;;;;;4.70;2.47;;;9.60;73.30;;;;;;2222921;55;21053;-73
2020/12/15 06:05:42;;;;;;;4.62;2.58;;;9.60;73.20;;;;;;2229224;55;25601;-73
2020/12/15 06:08:08;;;;;;;5.55;2.85;;;9.60;73.30;;;;;;2205570;57;20995;-72
2020/12/15 06:10:35;;;;;;;4.45;2.70;;;9.60;73.30;;;;;;2225558;56;21055;-72
2020/12/15 06:13:02;;;;;;;4.78;2.35;;;9.60;73.40;;;;;;2460094;55;22616;-72
2020/12/15 06:15:29;;;;;;;5.12;2.45;;;9.60;73.40;;;;;;2229865;55;21587;-72
2020/12/15 06:17:56;;;;;;;5.22;2.62;;;9.60;73.40;;;;;;2222480;55;21035;-72
2020/12/15 06:20:23;;;;;;;6.30;3.28;;;9.60;73.40;;;;;;2447632;55;21984;-72
2020/12/15 06:22:53;;;;;;;8.77;4.07;;;9.60;73.40;;;;;;2233840;56;21005;-73
2020/12/15 06:25:33;;;;;;;9.07;4.30;;;9.70;73.40;;;;;;2223239;56;21019;-72
2020/12/15 06:28:17;;;;;;;6.25;3.40;;;9.70;73.30;;;;;;2443147;55;20999;-73
2020/12/15 06:30:44;;;;;;;7.00;3.67;;;9.70;73.10;;;;;;2205871;57;21553;-73
2020/12/15 06:33:13;;;;;;;6.97;3.62;;;9.70;73.30;;;;;;2237265;56;21631;-72
2020/12/15 06:35:39;;;;;;;7.28;3.50;;;9.70;73.20;;;;;;2237767;56;20977;-72
2020/12/15 06:38:15;;;;;;;5.62;3.00;;;9.70;73.20;;;;;;2231360;56;21102;-72
2020/12/15 06:40:44;;;;;;;5.97;3.03;;;9.70;73.20;;;;;;2417092;56;21515;-72
2020/12/15 06:43:18;;;;;;;6.30;3.72;;;9.70;73.20;;;;;;2224381;55;21743;-72
2020/12/15 06:45:45;;;;;;;11.80;5.47;;;9.70;73.10;;;;;;2456129;55;21039;-72
2020/12/15 06:48:14;;;;;;;8.68;4.80;;;9.70;73.10;;;;;;2230529;56;20999;-72
2020/12/15 06:50:45;;;;;;;9.48;4.50;;;9.70;73.10;;;;;;2227149;55;22000;-72
2020/12/15 06:53:13;;;;;;;8.15;4.15;;;9.70;73.10;;;;;;2226759;55;21010;-72
2020/12/15 06:55:40;;;;;;;6.53;3.45;;;9.60;73.10;;;;;;2228953;55;20965;-72
2020/12/15 06:58:08;;;;;;;6.32;3.90;;;9.60;73.20;;;;;;2460487;55;20956;-73
2020/12/15 07:00:38;;;;;;;6.07;3.50;;;9.60;73.20;;;;;;2239238;56;21056;-73
2020/12/15 07:03:08;;;;;;;6.57;3.62;;;9.60;73.10;;;;;;2224952;55;21044;-73
2020/12/15 07:05:35;;;;;;;6.53;3.30;;;9.60;73.20;;;;;;2237657;56;21048;-73
2020/12/15 07:08:09;;;;;;;8.07;3.80;;;9.60;73.30;;;;;;2445795;56;21867;-72
2020/12/15 07:10:41;;;;;;;7.05;3.78;;;9.70;73.30;;;;;;2235936;56;20941;-72
2020/12/15 07:13:10;;;;;;;6.50;3.15;;;9.60;73.20;;;;;;2228387;56;21031;-72
2020/12/15 07:15:36;;;;;;;6.85;3.58;;;9.60;73.20;;;;;;2235583;56;21084;-72
2020/12/15 07:18:04;;;;;;;5.60;3.10;;;9.60;73.20;;;;;;2237247;56;20981;-72
2020/12/15 07:20:32;;;;;;;8.32;4.18;;;9.70;73.30;;;;;;2460703;55;21544;-72
2020/12/15 07:22:58;;;;;;;8.25;4.60;;;9.70;73.30;;;;;;2237091;55;21108;-72
2020/12/15 07:25:27;;;;;;;7.28;3.78;;;9.70;73.40;;;;;;2241032;56;20945;-72
2020/12/15 07:27:54;;;;;;;6.97;3.70;;;9.70;73.40;;;;;;2222736;55;21100;-72
2020/12/15 07:30:21;;;;;;;6.20;3.20;;;9.70;73.50;;;;;;2444361;55;21565;-72
2020/12/15 07:32:48;;;;;;;6.97;3.75;;;9.70;73.50;;;;;;2229599;55;21036;-73
2020/12/15 07:35:22;;;;;;;10.32;4.57;;;9.70;73.50;;;;;;2459793;55;21012;-72
2020/12/15 07:37:50;;;;;;;5.70;3.25;;;9.70;73.40;;;;;;2232503;56;21006;-72
2020/12/15 07:40:19;;;;;;;5.18;2.92;;;9.70;73.50;;;;;;2227637;56;20994;-72
2020/12/15 07:43:52;;;;;;;6.00;3.30;;;9.70;73.40;;;;;;2237838;56;20972;-72
2020/12/15 07:46:19;;;;;;;6.75;3.60;;;9.70;73.00;;;;;;2226941;55;21073;-72
2020/12/15 07:48:46;;;;;;;5.50;2.95;;;9.70;73.50;;;;;;2226604;55;20965;-73
2020/12/15 07:51:14;;;;;;;5.80;3.50;;;9.80;73.60;;;;;;2446365;55;21005;-72
2020/12/15 07:53:49;;;;;;;7.57;4.03;;;9.80;73.70;;;;;;2458484;56;20984;-73
2020/12/15 07:56:16;;;;;;;5.97;3.65;;;9.80;73.60;;;;;;2223067;55;21018;-73
2020/12/15 07:58:43;;;;;;;6.32;3.87;;;9.80;73.70;;;;;;2234562;55;21002;-73
2020/12/15 08:01:09;;;;;;;6.82;3.83;;;9.80;73.80;;;;;;2224138;55;20968;-72
2020/12/15 08:03:38;;;;;;;6.30;3.50;;;9.80;73.80;;;;;;2237434;56;21470;-73
2020/12/15 08:06:09;;;;;;;5.32;3.20;;;9.80;73.80;;;;;;2460217;55;21036;-72
2020/12/15 08:08:36;;;;;;;6.45;3.33;;;9.90;74.00;;;;;;2460771;55;21021;-72
2020/12/15 08:11:02;;;;;;;5.85;2.95;;;9.90;74.10;;;;;;2460962;55;20949;-73
2020/12/15 08:13:29;;;;;;;6.03;3.40;;;9.90;74.20;;;;;;2238945;56;21553;-72
2020/12/15 08:15:55;;;;;;;8.05;4.28;;;9.90;74.10;;;;;;2222838;56;21017;-73
2020/12/15 08:18:22;;;;;;;7.10;4.72;;;9.90;74.00;;;;;;2238507;56;21430;-73
2020/12/15 08:20:48;;;;;;;7.80;4.55;;;10.00;72.90;;;;;;2226893;55;21039;-72
2020/12/15 08:23:18;;;;;;;8.77;4.87;;;10.00;72.80;;;;;;2454999;55;20968;-72
2020/12/15 08:25:47;;;;;;;6.82;3.92;;;10.00;72.70;;;;;;2237134;56;21506;-72
2020/12/15 08:28:24;;;;;;;6.85;4.05;;;10.00;72.70;;;;;;2460661;55;21038;-72
2020/12/15 08:30:52;;;;;;;6.57;3.67;;;10.00;72.80;;;;;;2461194;55;20945;-72
2020/12/15 08:33:26;;;;;;;6.53;3.22;;;10.00;72.90;;;;;;2239851;55;21039;-72
2020/12/15 08:35:52;;;;;;;4.70;3.00;;;10.00;72.90;;;;;;2226912;55;21016;-72
2020/12/15 08:38:20;;;;;;;6.45;2.75;;;10.10;73.00;;;;;;2460763;55;21059;-73
2020/12/15 08:40:52;;;;;;;7.25;3.60;;;10.10;73.20;;;;;;2233916;56;21017;-72
2020/12/15 08:43:19;;;;;;;6.43;3.37;;;10.10;73.20;;;;;;2460886;55;21040;-72
2020/12/15 08:45:45;;;;;;;5.80;3.40;;;10.10;73.20;;;;;;2226135;56;21011;-72
2020/12/15 08:48:17;;;;;;;5.32;3.25;;;10.20;73.30;;;;;;2239995;56;20999;-72
2020/12/15 08:51:11;;;;;;;5.70;3.00;;;10.20;73.30;;;;;;2445391;55;20980;-71
2020/12/15 08:53:41;;;;;;;4.32;2.60;;;10.20;73.00;;;;;;2460890;55;21028;-72
2020/12/15 08:56:21;;;;;;;4.85;3.20;;;10.20;73.30;;;;;;2223520;56;20968;-73
2020/12/15 08:58:47;;;;;;;4.72;2.65;;;10.30;73.30;;;;;;2236294;56;21023;-72
2020/12/15 09:01:14;;;;;;;4.80;2.55;;;10.30;73.40;;;;;;2440275;55;21053;-72
2020/12/15 09:03:44;;;;;;;4.72;2.45;;;10.30;73.40;;;;;;2227605;55;21060;-72
2020/12/15 09:06:11;;;;;;;5.32;2.85;;;10.30;73.50;;;;;;2452909;55;21032;-73
2020/12/15 09:08:50;;;;;;;4.45;2.45;;;10.40;73.60;;;;;;2230417;55;21031;-72
2020/12/15 09:11:17;;;;;;;4.60;2.92;;;10.40;74.00;;;;;;2231816;55;20949;-72
2020/12/15 09:14:03;;;;;;;5.25;3.00;;;10.40;73.40;;;;;;2235419;56;21003;-72
2020/12/15 09:16:37;;;;;;;4.87;2.72;;;10.40;73.30;;;;;;2444852;55;20983;-73
2020/12/15 09:19:15;;;;;;;5.60;2.95;;;10.50;73.50;;;;;;2440317;55;21024;-72
2020/12/15 09:21:41;;;;;;;4.80;2.70;;;10.50;73.50;;;;;;2231763;55;21056;-73
2020/12/15 09:24:08;;;;;;;5.20;2.97;;;10.50;73.60;;;;;;2236487;56;20993;-72
2020/12/15 09:26:38;;;;;;;6.10;3.87;;;10.60;73.60;;;;;;2237690;56;21764;-73
2020/12/15 09:29:11;;;;;;;6.95;3.95;;;10.60;73.60;;;;;;2238322;56;21043;-72
2020/12/15 09:31:40;;;;;;;7.68;4.70;;;10.60;73.60;;;;;;2229950;56;20957;-72
2020/12/15 09:34:08;;;;;;;7.05;4.47;;;10.60;73.50;;;;;;2441748;55;20974;-72
2020/12/15 09:36:37;;;;;;;7.35;3.80;;;10.70;73.60;;;;;;2223231;55;21054;-71
2020/12/15 09:39:07;;;;;;;6.25;3.72;;;10.70;73.50;;;;;;2205832;57;20969;-72
2020/12/15 09:41:36;;;;;;;6.55;4.30;;;10.70;73.40;;;;;;2240543;56;21393;-72
2020/12/15 09:44:02;;;;;;;7.25;4.47;;;10.70;73.20;;;;;;2461207;55;21060;-73
2020/12/15 09:46:29;;;;;;;8.77;5.07;;;10.70;73.10;;;;;;2457357;55;21645;-73
2020/12/15 09:48:56;;;;;;;6.90;4.47;;;10.80;73.10;;;;;;2459481;55;20980;-73
2020/12/15 09:51:22;;;;;;;14.60;7.43;;;10.80;73.00;;;;;;2224514;55;21093;-72
2020/12/15 09:53:49;;;;;;;12.18;8.02;;;10.80;73.00;;;;;;2228249;55;21844;-72
2020/12/15 09:56:18;;;;;;;12.70;8.18;;;10.80;72.90;;;;;;2235802;56;20971;-73
2020/12/15 09:58:46;;;;;;;11.32;7.82;;;10.80;72.80;;;;;;2226748;56;21767;-73
2020/12/15 10:01:17;;;;;;;12.63;7.93;;;10.80;72.80;;;;;;2237580;55;21395;-73
2020/12/15 10:03:43;;;;;;;14.87;9.35;;;10.80;72.80;;;;;;2443850;55;20963;-72
2020/12/15 10:06:15;;;;;;;10.48;6.90;;;10.80;72.80;;;;;;2440737;55;21480;-73
2020/12/15 10:08:42;;;;;;;11.20;8.18;;;10.80;72.80;;;;;;2237018;56;21012;-72
2020/12/15 10:11:17;;;;;;;10.45;6.57;;;10.80;72.80;;;;;;2222923;55;21021;-72
2020/12/15 10:13:43;;;;;;;9.98;5.53;;;10.80;72.60;;;;;;2456449;55;20999;-73
2020/12/15 10:16:09;;;;;;;9.23;5.80;;;10.80;72.70;;;;;;2226504;56;22008;-73
2020/12/15 10:18:36;;;;;;;8.73;5.60;;;10.80;72.70;;;;;;2441044;55;20996;-73
2020/12/15 10:21:03;;;;;;;8.63;5.37;;;10.80;72.70;;;;;;2443370;55;20952;-73
2020/12/15 10:23:32;;;;;;;8.50;5.03;;;10.80;72.80;;;;;;2236994;56;21701;-73
2020/12/15 10:25:59;;;;;;;6.82;4.90;;;10.80;73.60;;;;;;2446396;55;21063;-74
2020/12/15 10:28:28;;;;;;;9.65;5.30;;;10.80;73.10;;;;;;2448735;55;21035;-73
2020/12/15 10:30:55;;;;;;;7.65;4.95;;;10.80;72.90;;;;;;2441468;55;21043;-74
2020/12/15 10:33:21;;;;;;;8.93;4.97;;;10.80;72.70;;;;;;2444436;55;21176;-74
2020/12/15 10:35:56;;;;;;;7.90;4.85;;;10.80;72.60;;;;;;2229992;56;21728;-73
2020/12/15 10:38:22;;;;;;;7.87;4.93;;;10.80;72.60;;;;;;2223616;56;21147;-73
2020/12/15 10:40:49;;;;;;;9.07;5.50;;;10.80;72.60;;;;;;2240000;56;21021;-73
2020/12/15 10:43:16;;;;;;;7.50;4.85;;;10.80;72.60;;;;;;2439911;55;21014;-73
2020/12/15 10:45:43;;;;;;;7.03;4.85;;;10.80;72.80;;;;;;2224354;55;21051;-74
2020/12/15 10:48:10;;;;;;;7.37;4.35;;;10.80;72.90;;;;;;2456177;55;21049;-74
2020/12/15 10:50:39;;;;;;;7.28;4.57;;;10.80;73.10;;;;;;2234332;56;20967;-73
2020/12/15 10:53:08;;;;;;;8.02;4.30;;;10.80;73.20;;;;;;2230332;55;21733;-74
2020/12/15 10:55:36;;;;;;;8.23;5.37;;;10.80;73.30;;;;;;2224285;56;21028;-74
2020/12/15 10:58:03;;;;;;;7.68;4.93;;;10.80;73.40;;;;;;2449735;56;20968;-73
2020/12/15 11:00:30;;;;;;;7.50;4.75;;;10.80;73.40;;;;;;2453828;55;20973;-74
2020/12/15 11:02:57;;;;;;;8.73;5.12;;;10.90;73.50;;;;;;2444871;55;21035;-73
2020/12/15 11:05:24;;;;;;;8.85;5.37;;;10.90;73.60;;;;;;2439723;55;21047;-74
2020/12/15 11:07:52;;;;;;;7.70;4.78;;;10.90;73.60;;;;;;2439245;55;21006;-73
2020/12/15 11:10:18;;;;;;;8.05;5.05;;;11.00;73.80;;;;;;2451966;55;21059;-73
2020/12/15 11:12:46;;;;;;;6.93;4.35;;;11.00;73.70;;;;;;2234369;55;21729;-73
2020/12/15 11:15:13;;;;;;;7.68;4.37;;;11.00;73.60;;;;;;2451433;55;21032;-73
2020/12/15 11:17:40;;;;;;;6.10;3.85;;;11.00;73.50;;;;;;2234942;56;21027;-73
2020/12/15 11:20:06;;;;;;;6.07;3.83;;;11.00;73.50;;;;;;2441196;55;20962;-73
2020/12/15 11:22:33;;;;;;;7.93;4.78;;;11.10;73.60;;;;;;2231371;55;21700;-74
2020/12/15 11:25:00;;;;;;;7.03;4.32;;;11.10;73.50;;;;;;2227323;55;21576;-73
2020/12/15 11:27:27;;;;;;;6.97;4.32;;;11.10;73.40;;;;;;2229557;55;21026;-73
2020/12/15 11:29:55;;;;;;;6.90;4.65;;;11.10;73.40;;;;;;2236865;56;21080;-73
2020/12/15 11:32:28;;;;;;;7.10;4.70;;;11.10;73.30;;;;;;2460817;55;21737;-74
2020/12/15 11:34:55;;;;;;;7.78;4.90;;;11.10;73.40;;;;;;2460416;55;20964;-73
2020/12/15 11:37:22;;;;;;;7.68;4.55;;;11.10;73.40;;;;;;2236853;56;21497;-74
2020/12/15 11:39:49;;;;;;;7.78;4.85;;;11.20;73.50;;;;;;2237902;56;21345;-74
2020/12/15 11:42:18;;;;;;;8.82;5.40;;;11.20;73.50;;;;;;2446536;55;20995;-73
2020/12/15 11:44:52;;;;;;;8.65;5.53;;;11.20;73.40;;;;;;2205398;57;21304;-73
2020/12/15 11:47:21;;;;;;;7.70;5.03;;;11.20;73.40;;;;;;2460808;55;20969;-74
2020/12/15 11:49:48;;;;;;;6.35;4.22;;;11.20;73.40;;;;;;2458439;55;21070;-73
2020/12/15 11:52:21;;;;;;;7.93;4.72;;;11.20;73.30;;;;;;2446750;55;21048;-73
2020/12/15 11:54:48;;;;;;;6.60;4.28;;;11.30;73.40;;;;;;2453552;55;20982;-73
2020/12/15 11:57:18;;;;;;;7.37;4.65;;;11.30;73.50;;;;;;2450128;55;21032;-73
2020/12/15 11:59:45;;;;;;;12.80;8.00;;;11.30;73.50;;;;;;2460311;55;20973;-73
2020/12/15 12:02:14;;;;;;;13.80;9.55;;;11.30;73.40;;;;;;2459673;55;20985;-73
2020/12/15 12:04:41;;;;;;;14.30;9.77;;;11.30;73.30;;;;;;2450108;56;20963;-75
2020/12/15 12:07:08;;;;;;;10.85;7.03;;;11.40;73.30;;;;;;2227042;56;21015;-73
2020/12/15 12:09:35;;;;;;;8.98;6.07;;;11.40;73.30;;;;;;2441332;55;21066;-73
2020/12/15 12:12:02;;;;;;;11.70;7.50;;;11.40;73.50;;;;;;2452649;55;21926;-74
2020/12/15 12:14:29;;;;;;;11.32;6.90;;;11.40;73.50;;;;;;2449123;55;21003;-74
2020/12/15 12:16:56;;;;;;;12.98;7.43;;;11.40;73.40;;;;;;2441183;55;21013;-74
2020/12/15 12:19:23;;;;;;;12.75;8.02;;;11.40;73.40;;;;;;2415377;56;21520;-73
2020/12/15 12:21:52;;;;;;;13.52;8.15;;;11.40;73.40;;;;;;2451677;56;21414;-73
2020/12/15 12:24:20;;;;;;;11.35;7.32;;;11.40;73.50;;;;;;2443603;56;21438;-74
2020/12/15 12:26:52;;;;;;;9.98;6.30;;;11.40;73.50;;;;;;2228113;55;20959;-73
2020/12/15 12:29:20;;;;;;;10.55;5.68;;;11.50;73.70;;;;;;2460398;55;21060;-73
2020/12/15 12:31:50;;;;;;;9.63;5.28;;;11.50;74.00;;;;;;2237555;56;21065;-73
2020/12/15 12:34:17;;;;;;;7.28;4.60;;;11.50;74.30;;;;;;2236144;55;21150;-73
2020/12/15 12:36:43;;;;;;;7.97;4.25;;;11.50;74.60;;;;;;2448744;55;20995;-73
2020/12/15 12:39:10;;;;;;;9.57;4.55;;;11.60;75.00;;;;;;2444651;55;20929;-73
2020/12/15 12:41:37;;;;;;;9.63;4.90;;;11.60;75.20;;;;;;2442493;56;21098;-74
2020/12/15 12:44:11;;;;;;;7.40;3.87;;;11.70;75.50;;;;;;2223512;55;20953;-74
2020/12/15 12:46:37;;;;;;;5.80;3.20;;;11.70;75.70;;;;;;2444093;55;21523;-73
2020/12/15 12:49:10;;;;;;;6.47;3.62;;;11.80;76.00;;;;;;2226825;55;20957;-73
2020/12/15 12:51:37;;;;;;;8.18;4.35;;;11.90;76.20;;;;;;2457386;56;21028;-74
2020/12/15 12:54:04;;;;;;;9.13;5.37;;;11.90;76.20;;;;;;2442030;55;21501;-73
2020/12/15 12:56:31;;;;;;;10.27;5.75;;;12.00;76.00;;;;;;2446037;55;21045;-72
2020/12/15 12:58:58;;;;;;;8.43;5.60;;;12.10;75.70;;;;;;2236822;55;21044;-74